Time;durP1;ratioP1;P1;durP2;ratioP2;P2;SDS_P1;SDS_P2;PMS_P1;PMS_P2;Temp;Humidity;BMP_temperature;BMP_pressure;BME280_temperature;BME280_humidity;BME280_pressure;Samples;Min_cycle;Max_cycle;Signal;HPM_P1;HPM_P2
2021/12/25 00:00:24;;;;;;;8.80;6.18;;;0.70;99.90;;;;;;4964199;28;21429;-80
2021/12/25 00:02:54;;;;;;;9.80;6.40;;;0.80;99.90;;;;;;4976050;28;20134;-82
2021/12/25 00:05:22;;;;;;;10.88;7.25;;;0.70;99.90;;;;;;4979165;28;20074;-82
2021/12/25 00:07:49;;;;;;;8.75;6.28;;;0.80;99.90;;;;;;4951275;29;20279;-82
2021/12/25 00:10:18;;;;;;;10.45;7.13;;;0.70;99.90;;;;;;4966453;28;20146;-81
2021/12/25 00:12:45;;;;;;;11.55;7.25;;;0.60;99.90;;;;;;4967923;28;20047;-82
2021/12/25 00:15:12;;;;;;;11.73;7.70;;;0.70;99.90;;;;;;4965627;28;20070;-82
2021/12/25 00:17:39;;;;;;;12.45;8.38;;;0.70;99.90;;;;;;4975399;28;20062;-81
2021/12/25 00:20:06;;;;;;;11.95;7.50;;;0.70;99.90;;;;;;4972819;28;20047;-81
2021/12/25 00:22:34;;;;;;;13.05;8.00;;;0.70;99.90;;;;;;4967463;28;20584;-82
2021/12/25 00:25:01;;;;;;;10.88;6.78;;;0.80;99.90;;;;;;4935936;29;20349;-81
2021/12/25 00:35:11;;;;;;;18.25;12.10;;;0.70;99.90;;;;;;4966036;28;20070;-81
2021/12/25 00:37:41;;;;;;;20.92;12.55;;;0.60;99.90;;;;;;4968491;28;20743;-81
2021/12/25 00:40:08;;;;;;;25.67;14.82;;;0.50;99.90;;;;;;4951831;28;20055;-81
2021/12/25 00:42:35;;;;;;;21.98;13.35;;;0.50;99.90;;;;;;4986569;28;20395;-81
2021/12/25 00:45:02;;;;;;;21.13;13.27;;;0.50;99.90;;;;;;4950266;28;20572;-81
2021/12/25 00:47:29;;;;;;;23.25;13.57;;;0.40;99.90;;;;;;4956687;28;20047;-80
2021/12/25 00:49:56;;;;;;;18.25;12.00;;;0.50;99.90;;;;;;4934062;29;20075;-79
2021/12/25 00:52:23;;;;;;;24.40;14.75;;;0.30;99.90;;;;;;4995728;28;20121;-80
2021/12/25 00:54:50;;;;;;;19.98;12.80;;;0.40;99.90;;;;;;4934582;29;20059;-80
2021/12/25 00:57:19;;;;;;;21.02;13.73;;;0.30;99.90;;;;;;4933884;29;20044;-81
2021/12/25 00:59:46;;;;;;;17.85;11.75;;;0.30;99.90;;;;;;4955603;28;20083;-81
2021/12/25 01:02:13;;;;;;;17.27;11.13;;;0.30;99.90;;;;;;4967210;28;20208;-81
2021/12/25 01:04:40;;;;;;;19.40;12.35;;;0.30;99.90;;;;;;4942658;29;20090;-80
2021/12/25 01:07:07;;;;;;;18.52;11.57;;;0.20;99.90;;;;;;4933697;29;20459;-80
2021/12/25 01:09:34;;;;;;;13.30;9.48;;;0.10;99.90;;;;;;4982299;28;20051;-80
2021/12/25 01:12:04;;;;;;;8.70;6.18;;;0.00;99.90;;;;;;4965631;28;20569;-80
2021/12/25 01:14:41;;;;;;;12.02;8.00;;;-0.10;99.90;;;;;;4949843;28;20095;-80
2021/12/25 01:20:47;;;;;;;;;;;0.00;99.90;;;;;;4976714;28;20066;-79
2021/12/25 01:33:56;;;;;;;12.25;6.25;;;-0.10;99.90;;;;;;4974044;28;20055;-80
2021/12/25 01:36:55;;;;;;;9.48;5.22;;;-0.10;99.90;;;;;;4951269;28;20166;-81
2021/12/25 01:48:20;;;;;;;8.60;5.63;;;-0.30;99.90;;;;;;4933962;29;20119;-80
2021/12/25 01:50:47;;;;;;;10.75;5.75;;;-0.40;99.90;;;;;;4954563;28;20054;-81
2021/12/25 01:53:14;;;;;;;10.00;6.40;;;-0.40;99.90;;;;;;4967793;28;20451;-81
2021/12/25 01:55:41;;;;;;;7.82;5.75;;;-0.50;99.90;;;;;;4934034;28;20059;-80
2021/12/25 01:58:08;;;;;;;8.77;6.88;;;-0.40;99.90;;;;;;4935656;29;20059;-81
2021/12/25 02:00:43;;;;;;;13.38;7.85;;;-0.40;99.90;;;;;;4951055;28;20059;-79
2021/12/25 02:03:11;;;;;;;;;;;-0.40;99.90;;;;;;4968366;28;20129;-79
2021/12/25 02:05:39;;;;;;;12.20;5.63;;;-0.50;99.90;;;;;;4945135;28;19930;-80
2021/12/25 02:08:22;;;;;;;7.70;5.95;;;-0.60;99.90;;;;;;4958146;28;20051;-80
2021/12/25 02:10:50;;;;;;;10.73;7.18;;;-0.60;99.90;;;;;;4951807;28;20601;-81
2021/12/25 02:13:18;;;;;;;8.52;5.20;;;-0.60;99.90;;;;;;4956146;28;20114;-80
2021/12/25 02:15:49;;;;;;;9.70;5.90;;;-0.60;99.90;;;;;;4934313;28;20059;-80
2021/12/25 02:18:43;;;;;;;8.45;4.97;;;-0.60;99.90;;;;;;4974230;28;20307;-80
2021/12/25 02:21:38;;;;;;;7.70;5.55;;;-0.70;99.90;;;;;;4952592;28;20149;-78
2021/12/25 02:24:11;;;;;;;4.82;3.97;;;-0.70;99.90;;;;;;4969601;28;20063;-79
2021/12/25 02:26:43;;;;;;;;;;;-0.80;99.90;;;;;;4966145;28;20146;-79
2021/12/25 02:29:10;;;;;;;4.97;3.67;;;-0.80;99.90;;;;;;4983247;28;19926;-80
2021/12/25 02:31:37;;;;;;;7.72;4.80;;;-0.90;99.90;;;;;;4966813;28;20473;-80
2021/12/25 02:34:04;;;;;;;7.35;4.47;;;-0.90;99.90;;;;;;4978410;28;20047;-80
2021/12/25 02:36:31;;;;;;;6.63;5.45;;;-0.90;99.90;;;;;;4934787;28;20047;-80
2021/12/25 02:38:58;;;;;;;8.55;5.75;;;-0.80;99.90;;;;;;4954916;29;20051;-80
2021/12/25 02:41:25;;;;;;;6.65;5.68;;;-0.80;99.90;;;;;;4969661;28;20130;-80
2021/12/25 02:43:52;;;;;;;6.03;5.32;;;-0.80;99.90;;;;;;4954870;28;20047;-79
2021/12/25 02:46:40;;;;;;;6.93;4.80;;;-0.80;99.90;;;;;;4959148;28;20054;-80
2021/12/25 02:49:14;;;;;;;7.95;5.88;;;-0.80;99.90;;;;;;4981941;28;20098;-79
2021/12/25 02:51:46;;;;;;;5.77;4.27;;;-0.80;99.90;;;;;;4989916;28;20072;-79
2021/12/25 02:54:15;;;;;;;9.98;6.45;;;-0.90;99.90;;;;;;4961990;28;20087;-78
2021/12/25 02:56:42;;;;;;;7.25;4.70;;;-0.90;99.90;;;;;;4953676;28;20162;-80
2021/12/25 02:59:12;;;;;;;6.28;5.03;;;-0.90;99.90;;;;;;4939117;29;20073;-80
2021/12/25 03:02:13;;;;;;;8.13;5.60;;;-1.00;99.90;;;;;;4956642;28;20186;-80
2021/12/25 03:04:43;;;;;;;5.88;4.15;;;-0.90;99.90;;;;;;4956817;28;20574;-80
2021/12/25 03:07:10;;;;;;;10.70;6.20;;;-0.90;99.90;;;;;;4989809;28;20087;-80
2021/12/25 03:09:38;;;;;;;8.05;6.25;;;-0.90;99.90;;;;;;4938875;29;20039;-80
2021/12/25 03:12:07;;;;;;;10.23;6.50;;;-0.90;99.90;;;;;;4938245;29;20058;-80
2021/12/25 03:15:00;;;;;;;11.02;7.03;;;-0.90;99.90;;;;;;4954012;28;20047;-79
2021/12/25 03:17:28;;;;;;;9.18;6.50;;;-0.90;99.90;;;;;;4980221;28;20065;-81
2021/12/25 03:19:56;;;;;;;9.45;6.35;;;-1.00;99.90;;;;;;4958086;28;20086;-80
2021/12/25 03:22:23;;;;;;;27.08;7.22;;;-1.00;99.90;;;;;;4989713;28;20055;-79
2021/12/25 03:24:52;;;;;;;9.50;6.60;;;-1.10;99.90;;;;;;4971626;28;20055;-80
2021/12/25 03:27:19;;;;;;;12.00;4.88;;;-1.00;99.90;;;;;;4953590;28;20043;-80
2021/12/25 03:29:46;;;;;;;8.38;5.05;;;-1.00;99.90;;;;;;4970822;28;20494;-81
2021/12/25 03:32:14;;;;;;;7.55;6.35;;;-1.00;99.90;;;;;;4940177;28;20701;-80
2021/12/25 03:34:41;;;;;;;7.28;5.28;;;-1.00;99.90;;;;;;4954899;28;20468;-80
2021/12/25 03:37:08;;;;;;;6.80;4.70;;;-1.00;99.90;;;;;;4954492;28;20794;-80
2021/12/25 03:39:35;;;;;;;8.30;6.43;;;-1.00;99.90;;;;;;4939218;29;20375;-80
2021/12/25 03:42:02;;;;;;;9.25;6.32;;;-1.00;99.90;;;;;;4953361;28;20055;-80
2021/12/25 03:44:31;;;;;;;7.63;6.05;;;-1.00;99.90;;;;;;4953658;28;20047;-81
2021/12/25 03:47:03;;;;;;;6.53;5.25;;;-1.00;99.90;;;;;;4937955;28;20051;-80
2021/12/25 03:53:08;;;;;;;7.57;4.75;;;-1.00;99.90;;;;;;4978126;28;20070;-80
2021/12/25 03:57:58;;;;;;;4.82;3.95;;;-1.00;99.90;;;;;;4956059;29;20039;-80
2021/12/25 04:00:30;;;;;;;9.85;6.78;;;-1.00;99.90;;;;;;4955777;28;21516;-80
2021/12/25 04:03:02;;;;;;;10.73;7.43;;;-1.10;99.90;;;;;;4976792;28;20071;-80
2021/12/25 04:05:41;;;;;;;12.15;6.50;;;-1.10;99.90;;;;;;4956821;28;20051;-80
2021/12/25 04:08:10;;;;;;;10.00;7.40;;;-1.00;99.90;;;;;;4940444;29;20059;-78
2021/12/25 04:10:43;;;;;;;13.18;8.10;;;-1.10;99.90;;;;;;4955839;28;20071;-80
2021/12/25 04:13:12;;;;;;;8.88;5.95;;;-1.10;99.90;;;;;;4955655;29;20106;-80
2021/12/25 04:15:40;;;;;;;10.20;7.80;;;-1.10;99.90;;;;;;4954303;28;20062;-80
2021/12/25 04:18:07;;;;;;;10.65;6.55;;;-1.10;99.90;;;;;;4957495;28;20047;-80
2021/12/25 04:20:35;;;;;;;11.98;8.05;;;-1.20;99.90;;;;;;4939145;29;20047;-80
2021/12/25 04:23:08;;;;;;;11.85;7.43;;;-1.20;99.90;;;;;;4970397;28;20158;-80
2021/12/25 04:25:36;;;;;;;10.85;8.00;;;-1.10;99.90;;;;;;4972934;28;20086;-80
2021/12/25 04:28:19;;;;;;;10.88;7.93;;;-1.20;99.90;;;;;;4956197;28;20055;-80
2021/12/25 04:31:25;;;;;;;13.13;7.85;;;-1.20;99.90;;;;;;4987228;28;20404;-80
2021/12/25 05:04:27;;;;;;;8.63;6.63;;;-1.50;99.90;;;;;;4957348;28;20114;-79
2021/12/25 05:07:05;;;;;;;13.57;7.90;;;-1.50;99.90;;;;;;4950604;28;20581;-79
2021/12/25 05:09:32;;;;;;;12.90;7.80;;;-1.50;99.90;;;;;;4932925;29;20063;-78
2021/12/25 05:11:59;;;;;;;8.45;5.60;;;-1.60;99.90;;;;;;4947544;28;20059;-79
2021/12/25 05:14:25;;;;;;;12.30;6.70;;;-1.70;99.90;;;;;;4916366;29;20154;-79
2021/12/25 05:16:52;;;;;;;9.98;7.50;;;-1.60;99.90;;;;;;4914624;29;20043;-79
2021/12/25 05:19:20;;;;;;;13.02;7.38;;;-1.70;99.90;;;;;;4944514;29;20046;-79
2021/12/25 05:21:48;;;;;;;7.15;4.75;;;-1.80;99.90;;;;;;4946054;28;20052;-79
2021/12/25 05:24:15;;;;;;;8.85;5.00;;;-1.80;99.90;;;;;;4935775;29;20041;-79
2021/12/25 05:26:46;;;;;;;7.45;4.18;;;-1.80;99.90;;;;;;4962659;28;20135;-78
2021/12/25 05:29:22;;;;;;;8.15;4.20;;;-1.80;99.90;;;;;;4961618;28;20187;-79
2021/12/25 05:31:50;;;;;;;7.78;5.43;;;-1.90;99.90;;;;;;4958984;28;20051;-79
2021/12/25 05:34:37;;;;;;;7.70;4.20;;;-1.90;99.90;;;;;;4945045;28;20062;-79
2021/12/25 05:37:15;;;;;;;8.02;5.50;;;-1.90;99.90;;;;;;4944929;28;20407;-79
2021/12/25 05:40:06;;;;;;;8.57;5.22;;;-1.80;99.90;;;;;;4943030;28;20051;-79
2021/12/25 05:42:39;;;;;;;7.05;4.50;;;-1.80;99.90;;;;;;4946562;29;20127;-79
2021/12/25 05:45:06;;;;;;;6.18;4.10;;;-1.70;99.90;;;;;;4930233;29;20114;-79
2021/12/25 05:47:45;;;;;;;6.60;4.20;;;-1.70;99.90;;;;;;4959604;28;20094;-79
2021/12/25 05:50:33;;;;;;;6.20;3.85;;;-1.80;99.90;;;;;;4917090;28;20082;-79
2021/12/25 05:53:07;;;;;;;13.70;4.38;;;-1.90;99.90;;;;;;4928849;29;20122;-80
2021/12/25 05:55:53;;;;;;;6.72;4.32;;;-1.90;99.90;;;;;;4928227;29;20082;-79
2021/12/25 05:58:38;;;;;;;7.65;4.00;;;-1.90;99.90;;;;;;4943213;29;20052;-79
2021/12/25 06:01:29;;;;;;;5.55;3.88;;;-1.90;99.90;;;;;;4933879;29;20217;-79
2021/12/25 06:03:57;;;;;;;5.65;3.67;;;-1.90;99.90;;;;;;4947116;28;20682;-79
2021/12/25 06:06:24;;;;;;;6.30;3.45;;;-2.00;99.90;;;;;;4944405;28;20475;-79
2021/12/25 06:08:52;;;;;;;5.00;3.22;;;-2.10;99.90;;;;;;4946428;29;20624;-78
2021/12/25 06:11:19;;;;;;;15.45;8.13;;;-2.00;99.90;;;;;;4931969;28;20079;-79
2021/12/25 06:13:57;;;;;;;7.60;3.90;;;-2.00;99.90;;;;;;4950435;28;20074;-79
2021/12/25 06:16:32;;;;;;;;;;;-1.90;99.90;;;;;;4956134;28;20048;-80
2021/12/25 06:19:14;;;;;;;5.38;3.15;;;-1.90;99.90;;;;;;4934127;29;19930;-80
2021/12/25 06:22:01;;;;;;;4.00;2.58;;;-2.10;99.90;;;;;;4963585;28;20591;-80
2021/12/25 06:24:56;;;;;;;5.25;2.88;;;-2.20;99.90;;;;;;4934421;29;20078;-79
2021/12/25 06:27:43;;;;;;;4.38;2.38;;;-2.20;99.90;;;;;;4967305;28;20176;-78
2021/12/25 06:30:26;;;;;;;5.07;2.25;;;-2.30;99.90;;;;;;4949347;28;20048;-79
2021/12/25 06:33:19;;;;;;;3.03;2.08;;;-2.30;99.90;;;;;;4949902;28;20065;-82
2021/12/25 06:36:09;;;;;;;4.25;2.45;;;-2.40;99.90;;;;;;4945981;28;20070;-80
2021/12/25 06:38:53;;;;;;;3.20;2.38;;;-2.50;99.90;;;;;;4933640;29;20147;-79
2021/12/25 06:41:44;;;;;;;3.50;1.98;;;-2.40;99.90;;;;;;4936889;28;20070;-77
2021/12/25 06:44:15;;;;;;;3.88;2.75;;;-2.40;99.90;;;;;;4933133;28;20059;-79
2021/12/25 06:46:45;;;;;;;3.63;2.00;;;-2.40;99.90;;;;;;4931585;28;20055;-79
2021/12/25 06:49:13;;;;;;;2.90;1.60;;;-2.50;99.90;;;;;;4977702;28;20042;-79
2021/12/25 06:51:58;;;;;;;2.60;1.73;;;-2.40;99.90;;;;;;4968168;28;20057;-79
2021/12/25 06:54:45;;;;;;;3.20;1.90;;;-2.40;99.90;;;;;;4938310;28;20109;-78
2021/12/25 06:57:29;;;;;;;3.95;1.63;;;-2.40;99.90;;;;;;4971673;28;20113;-78
2021/12/25 07:00:00;;;;;;;3.47;1.92;;;-2.50;99.90;;;;;;4969942;28;20051;-78
2021/12/25 07:02:26;;;;;;;2.72;2.00;;;-2.60;99.90;;;;;;4932348;28;20601;-79
2021/12/25 07:05:12;;;;;;;2.90;1.80;;;-2.50;99.90;;;;;;4962992;28;20035;-79
2021/12/25 07:07:58;;;;;;;4.75;2.10;;;-2.60;99.90;;;;;;4949829;29;20074;-80
2021/12/25 07:10:41;;;;;;;1.98;1.77;;;-2.70;99.90;;;;;;4964612;28;20051;-79
2021/12/25 07:13:44;;;;;;;3.55;2.38;;;-2.80;99.90;;;;;;4948370;29;20415;-80
2021/12/25 07:16:30;;;;;;;3.28;2.03;;;-2.80;99.90;;;;;;4962547;28;20130;-79
2021/12/25 07:19:18;;;;;;;2.05;1.80;;;-2.70;99.90;;;;;;4958750;28;20450;-80
2021/12/25 07:22:08;;;;;;;3.20;2.05;;;-2.70;99.90;;;;;;4975252;28;20066;-78
2021/12/25 07:24:38;;;;;;;5.53;2.33;;;-2.70;99.90;;;;;;4965723;28;20055;-79
2021/12/25 07:27:23;;;;;;;3.05;2.33;;;-2.80;99.90;;;;;;4970260;28;20054;-79
2021/12/25 07:29:54;;;;;;;2.92;2.42;;;-2.90;99.90;;;;;;4949750;28;20698;-80
2021/12/25 07:32:21;;;;;;;3.72;2.50;;;-2.90;99.90;;;;;;4948217;28;20106;-78
2021/12/25 07:34:48;;;;;;;3.88;3.58;;;-2.90;99.90;;;;;;4931843;29;20553;-79
2021/12/25 07:37:15;;;;;;;2.38;2.20;;;-2.90;99.90;;;;;;4962985;28;20054;-79
2021/12/25 07:39:42;;;;;;;2.30;2.10;;;-2.90;99.90;;;;;;4964006;28;20071;-81
2021/12/25 07:42:10;;;;;;;4.35;2.30;;;-3.00;99.90;;;;;;4979410;28;20054;-81
2021/12/25 07:45:02;;;;;;;4.15;2.55;;;-2.90;99.90;;;;;;4961442;28;20062;-81
2021/12/25 07:47:32;;;;;;;3.58;2.47;;;-3.00;99.90;;;;;;4934419;29;20074;-81
2021/12/25 07:49:59;;;;;;;3.55;2.38;;;-3.10;99.90;;;;;;4933994;29;20039;-80
2021/12/25 07:52:27;;;;;;;3.30;2.45;;;-3.00;99.90;;;;;;4961801;28;20134;-80
2021/12/25 07:54:54;;;;;;;3.70;2.58;;;-3.10;99.90;;;;;;4951366;28;20076;-80
2021/12/25 07:57:21;;;;;;;2.90;2.63;;;-3.00;99.90;;;;;;4931820;28;20039;-81
2021/12/25 07:59:48;;;;;;;3.83;2.13;;;-3.00;99.90;;;;;;4970550;28;20083;-78
2021/12/25 08:02:14;;;;;;;3.88;2.67;;;-3.10;99.90;;;;;;4962981;28;20127;-79
2021/12/25 08:04:41;;;;;;;5.00;3.03;;;-3.00;99.90;;;;;;4946677;28;20603;-78
2021/12/25 08:07:08;;;;;;;5.15;3.00;;;-2.90;99.90;;;;;;4975934;28;20430;-79
2021/12/25 08:09:37;;;;;;;4.65;3.30;;;-2.90;99.90;;;;;;4939679;29;20043;-79
2021/12/25 08:12:04;;;;;;;3.40;2.92;;;-2.80;99.90;;;;;;4943274;28;20055;-80
2021/12/25 08:14:33;;;;;;;3.22;2.80;;;-2.90;99.90;;;;;;4964055;28;20051;-79
2021/12/25 08:17:02;;;;;;;5.15;3.08;;;-2.80;99.90;;;;;;4955077;28;20103;-80
2021/12/25 08:19:49;;;;;;;4.82;3.13;;;-2.80;99.90;;;;;;4915772;29;20058;-79
2021/12/25 08:22:35;;;;;;;2.75;2.55;;;-2.80;99.90;;;;;;4940963;28;20055;-79
2021/12/25 08:25:35;;;;;;;4.15;2.90;;;-2.80;99.90;;;;;;4949189;28;20048;-79
2021/12/25 08:28:21;;;;;;;5.07;2.58;;;-2.90;99.90;;;;;;4952196;28;20142;-79
2021/12/25 08:31:07;;;;;;;3.28;3.05;;;-2.80;99.90;;;;;;4928329;29;20084;-79
2021/12/25 08:34:08;;;;;;;4.95;3.40;;;-2.90;99.90;;;;;;4915678;29;20069;-79
2021/12/25 08:37:15;;;;;;;7.30;3.45;;;-2.80;99.90;;;;;;4934151;28;20908;-79
2021/12/25 08:39:42;;;;;;;5.47;3.33;;;-2.90;99.90;;;;;;4946566;29;20086;-79
2021/12/25 08:42:10;;;;;;;3.58;3.20;;;-2.90;99.90;;;;;;4906154;29;20127;-79
2021/12/25 08:47:12;;;;;;;10.23;5.60;;;-2.80;99.90;;;;;;4942381;29;20050;-79
2021/12/25 08:49:40;;;;;;;7.45;4.97;;;-2.70;99.90;;;;;;4927654;29;20464;-80
2021/12/25 08:52:11;;;;;;;7.00;3.88;;;-2.60;99.90;;;;;;4926782;29;20048;-78
2021/12/25 08:54:38;;;;;;;6.07;4.25;;;-2.50;99.90;;;;;;4927283;29;20071;-79
2021/12/25 08:57:06;;;;;;;6.20;3.92;;;-2.60;99.90;;;;;;4928863;29;20661;-77
2021/12/25 08:59:34;;;;;;;6.22;4.20;;;-2.70;99.90;;;;;;4912871;29;20044;-79
2021/12/25 09:02:05;;;;;;;7.50;4.35;;;-2.80;99.90;;;;;;4910688;29;20126;-78
2021/12/25 09:04:32;;;;;;;6.95;4.38;;;-2.80;99.90;;;;;;4926806;29;20659;-79
2021/12/25 09:06:59;;;;;;;4.30;3.95;;;-2.80;99.90;;;;;;4942158;28;20246;-79
2021/12/25 09:09:26;;;;;;;6.15;3.85;;;-2.80;99.90;;;;;;4926753;29;20789;-78
2021/12/25 09:11:53;;;;;;;16.10;8.23;;;-2.80;99.90;;;;;;4926625;29;20055;-82
2021/12/25 09:14:20;;;;;;;8.35;5.60;;;-2.90;99.90;;;;;;4927603;29;20129;-80
2021/12/25 09:16:46;;;;;;;8.00;5.00;;;-2.90;99.90;;;;;;4926377;29;20079;-78
2021/12/25 09:19:14;;;;;;;4.32;3.92;;;-2.80;99.90;;;;;;4911487;29;20043;-79
2021/12/25 09:21:46;;;;;;;4.07;3.78;;;-2.60;99.90;;;;;;4941473;28;20188;-78
2021/12/25 09:24:13;;;;;;;5.60;4.10;;;-2.70;99.90;;;;;;4943611;29;20051;-79
2021/12/25 09:26:40;;;;;;;4.97;4.57;;;-2.80;99.90;;;;;;4941393;28;20716;-79
2021/12/25 09:29:07;;;;;;;4.45;4.05;;;-2.80;99.90;;;;;;4918472;29;20880;-80
2021/12/25 09:31:34;;;;;;;5.43;4.90;;;-2.60;99.90;;;;;;4957356;28;20078;-79
2021/12/25 09:34:00;;;;;;;4.72;4.43;;;-2.70;99.90;;;;;;4925704;29;20051;-79
2021/12/25 09:36:29;;;;;;;5.75;4.80;;;-2.70;99.90;;;;;;4942112;29;20047;-78
2021/12/25 09:38:56;;;;;;;8.18;6.32;;;-2.70;99.90;;;;;;4943847;29;20044;-79
2021/12/25 09:41:23;;;;;;;4.95;4.55;;;-2.80;99.90;;;;;;4949572;28;20122;-79
2021/12/25 09:43:50;;;;;;;7.13;6.43;;;-2.80;99.90;;;;;;4958779;28;20293;-78
2021/12/25 09:46:20;;;;;;;6.80;6.20;;;-2.70;99.90;;;;;;4925741;29;20051;-79
2021/12/25 09:48:50;;;;;;;6.15;5.68;;;-2.70;99.90;;;;;;4941701;28;20062;-78
2021/12/25 09:51:18;;;;;;;7.10;6.60;;;-2.60;99.90;;;;;;4941037;28;20047;-78
2021/12/25 09:54:01;;;;;;;6.20;5.90;;;-2.60;99.90;;;;;;4959331;28;20040;-78
2021/12/25 09:56:29;;;;;;;6.43;6.03;;;-2.60;99.90;;;;;;4957371;28;20063;-82
2021/12/25 09:58:56;;;;;;;7.25;6.85;;;-2.70;99.90;;;;;;4958081;28;20848;-81
2021/12/25 10:01:42;;;;;;;6.82;6.32;;;-2.70;99.90;;;;;;4957947;28;20087;-79
2021/12/25 10:04:28;;;;;;;6.65;6.20;;;-2.80;99.90;;;;;;4926001;29;20122;-79
2021/12/25 10:06:55;;;;;;;6.97;6.45;;;-2.90;99.90;;;;;;4955845;28;20471;-80
2021/12/25 10:09:24;;;;;;;6.60;6.10;;;-3.00;99.90;;;;;;4924899;29;20467;-81
2021/12/25 10:11:58;;;;;;;10.00;8.98;;;-2.90;99.90;;;;;;4927568;28;20511;-79
2021/12/25 10:14:25;;;;;;;32.42;15.88;;;-2.80;99.90;;;;;;4973887;28;20052;-81
2021/12/25 10:16:52;;;;;;;5.35;5.05;;;-2.90;99.90;;;;;;4955356;28;20044;-81
2021/12/25 10:19:21;;;;;;;5.20;4.97;;;-2.90;99.90;;;;;;4957352;28;20698;-78
2021/12/25 10:22:09;;;;;;;14.73;9.68;;;-3.00;99.90;;;;;;4957448;28;20048;-79
2021/12/25 10:24:48;;;;;;;5.22;4.88;;;-3.00;99.90;;;;;;4940942;28;20114;-79
2021/12/25 10:27:20;;;;;;;6.97;5.97;;;-3.00;99.90;;;;;;4924486;29;20122;-80
2021/12/25 10:29:47;;;;;;;7.00;6.35;;;-2.90;99.90;;;;;;4940847;29;20083;-81
2021/12/25 10:32:24;;;;;;;7.72;7.00;;;-2.90;99.90;;;;;;4925255;28;20079;-80
2021/12/25 10:34:53;;;;;;;6.30;5.82;;;-2.80;99.90;;;;;;4925747;29;20055;-79
2021/12/25 10:37:22;;;;;;;6.88;6.20;;;-2.80;99.90;;;;;;4956858;28;20048;-79
2021/12/25 10:39:50;;;;;;;7.30;6.70;;;-2.80;99.90;;;;;;4924674;29;20130;-78
2021/12/25 10:42:20;;;;;;;6.70;6.20;;;-2.70;99.90;;;;;;4956590;28;20052;-79
2021/12/25 10:44:50;;;;;;;6.25;5.85;;;-2.60;99.90;;;;;;4925232;29;20831;-79
2021/12/25 10:47:23;;;;;;;6.75;6.35;;;-2.50;99.90;;;;;;4924268;29;20106;-79
2021/12/25 10:49:58;;;;;;;6.55;6.15;;;-2.40;99.90;;;;;;4934449;29;20695;-79
2021/12/25 10:52:40;;;;;;;6.95;6.55;;;-2.10;99.90;;;;;;4955167;28;20711;-79
2021/12/25 10:55:23;;;;;;;7.30;6.90;;;-2.10;99.90;;;;;;4955246;28;20641;-79
2021/12/25 10:57:53;;;;;;;7.90;7.28;;;-2.10;99.90;;;;;;4957608;28;20048;-78
2021/12/25 11:00:19;;;;;;;8.90;8.13;;;-2.10;99.90;;;;;;4927596;28;20778;-80
2021/12/25 11:02:51;;;;;;;7.65;7.00;;;-2.20;99.90;;;;;;4960763;28;20059;-79
2021/12/25 11:05:27;;;;;;;8.85;8.10;;;-2.00;99.90;;;;;;4976309;28;20043;-80
2021/12/25 11:08:12;;;;;;;8.27;7.68;;;-2.30;99.90;;;;;;4944652;29;20111;-79
2021/12/25 11:10:50;;;;;;;;;;;-2.40;99.90;;;;;;4960443;28;20523;-79
2021/12/25 11:13:21;;;;;;;8.13;7.82;;;-2.30;99.90;;;;;;4961204;28;19973;-78
2021/12/25 11:15:49;;;;;;;8.73;8.20;;;-2.30;99.90;;;;;;4926791;29;20661;-79
2021/12/25 11:18:17;;;;;;;8.75;8.23;;;-2.40;99.90;;;;;;4942938;29;20044;-79
2021/12/25 11:20:46;;;;;;;10.05;9.40;;;-2.50;99.90;;;;;;4960327;28;20089;-79
2021/12/25 11:23:15;;;;;;;8.43;7.80;;;-2.60;99.90;;;;;;4929179;29;20052;-79
2021/12/25 11:25:44;;;;;;;8.40;7.80;;;-2.70;99.90;;;;;;4928763;28;20050;-79
2021/12/25 11:28:14;;;;;;;8.05;7.55;;;-2.50;99.90;;;;;;4911990;29;20479;-79
2021/12/25 11:30:46;;;;;;;8.00;7.70;;;-2.30;99.90;;;;;;4944587;28;20051;-79
2021/12/25 11:33:16;;;;;;;8.40;7.90;;;-2.10;99.90;;;;;;4930181;29;20058;-80
2021/12/25 11:35:43;;;;;;;9.07;8.50;;;-1.90;99.90;;;;;;4959812;28;20106;-79
2021/12/25 11:38:10;;;;;;;9.55;9.15;;;-2.00;99.90;;;;;;4943740;28;20063;-79
2021/12/25 11:40:45;;;;;;;9.15;8.60;;;-2.10;99.90;;;;;;4976247;28;20084;-80
2021/12/25 11:43:12;;;;;;;8.90;8.48;;;-2.20;99.90;;;;;;4944816;28;20086;-79
2021/12/25 11:45:41;;;;;;;9.50;8.95;;;-2.40;99.90;;;;;;4942990;28;20107;-81
2021/12/25 11:48:17;;;;;;;9.75;9.25;;;-2.50;99.90;;;;;;4928943;29;20073;-79
2021/12/25 11:50:48;;;;;;;8.95;8.35;;;-2.60;99.90;;;;;;4960786;28;20099;-80
2021/12/25 11:53:39;;;;;;;8.77;7.95;;;-2.40;99.90;;;;;;4959615;28;20043;-80
2021/12/25 11:56:41;;;;;;;8.32;7.82;;;-2.30;99.90;;;;;;4960294;28;20098;-79
2021/12/25 11:59:16;;;;;;;9.88;9.13;;;-2.10;99.90;;;;;;4929305;28;20067;-80
2021/12/25 12:01:49;;;;;;;9.60;9.15;;;-2.10;99.90;;;;;;4926345;29;20039;-80
2021/12/25 12:04:18;;;;;;;9.88;9.38;;;-2.10;99.90;;;;;;4960707;28;20091;-77
2021/12/25 12:06:45;;;;;;;9.52;9.07;;;-2.20;99.90;;;;;;4960636;28;20518;-79
2021/12/25 12:09:23;;;;;;;9.45;9.05;;;-2.20;99.90;;;;;;4957807;28;20047;-80
2021/12/25 12:12:14;;;;;;;9.60;9.10;;;-2.10;99.90;;;;;;4941151;28;20043;-81
2021/12/25 12:15:18;;;;;;;9.57;8.88;;;-1.90;99.90;;;;;;4929706;29;20711;-79
2021/12/25 12:18:26;;;;;;;8.98;8.48;;;-1.90;99.90;;;;;;4954055;28;20478;-80
2021/12/25 12:21:20;;;;;;;9.95;9.43;;;-1.70;99.90;;;;;;4974235;28;20556;-79
2021/12/25 12:26:34;;;;;;;9.82;9.43;;;-1.90;99.90;;;;;;4948235;28;20047;-79
2021/12/25 12:29:01;;;;;;;9.80;9.40;;;-2.00;99.90;;;;;;4963771;28;20118;-79
2021/12/25 12:31:35;;;;;;;9.75;9.18;;;-1.90;99.90;;;;;;4974918;28;20035;-79
2021/12/25 12:34:22;;;;;;;10.18;9.68;;;-1.90;99.90;;;;;;4968694;28;20651;-80
2021/12/25 12:36:49;;;;;;;10.70;10.05;;;-1.90;99.90;;;;;;4967004;28;20142;-80
2021/12/25 12:39:20;;;;;;;10.27;9.88;;;-1.80;99.90;;;;;;4950076;28;20051;-80
2021/12/25 12:41:53;;;;;;;10.80;10.30;;;-1.90;99.90;;;;;;4981787;28;20055;-80
2021/12/25 12:44:28;;;;;;;10.63;10.10;;;-1.90;99.90;;;;;;4933934;29;20256;-77
2021/12/25 12:46:58;;;;;;;;;;;-1.90;99.90;;;;;;4954889;28;20093;-80
2021/12/25 12:49:33;;;;;;;10.45;10.00;;;-1.90;99.90;;;;;;4940102;28;20305;-79
2021/12/25 12:52:26;;;;;;;11.00;10.50;;;-2.00;99.90;;;;;;4969681;28;20059;-80
2021/12/25 12:54:59;;;;;;;10.95;10.52;;;-2.10;99.90;;;;;;4953668;28;20070;-80
2021/12/25 12:57:30;;;;;;;16.70;14.70;;;-2.00;99.90;;;;;;4985242;28;20056;-79
2021/12/25 13:00:08;;;;;;;14.30;12.95;;;-1.90;99.90;;;;;;4970072;28;20106;-80
2021/12/25 13:02:41;;;;;;;12.82;11.63;;;-1.80;99.90;;;;;;4931281;29;20051;-80
2021/12/25 13:05:09;;;;;;;13.57;12.50;;;-1.50;99.90;;;;;;4952262;28;20098;-80
2021/12/25 13:07:39;;;;;;;14.70;13.50;;;-1.70;99.90;;;;;;4967721;28;20474;-80
2021/12/25 13:10:17;;;;;;;11.95;11.27;;;-1.80;99.90;;;;;;4951793;28;20109;-80
2021/12/25 13:12:46;;;;;;;11.73;11.23;;;-1.90;99.90;;;;;;4968653;28;20147;-80
2021/12/25 13:15:16;;;;;;;10.88;10.48;;;-1.90;99.90;;;;;;4967822;28;20208;-80
2021/12/25 13:17:54;;;;;;;12.18;11.57;;;-1.90;99.90;;;;;;4953283;29;20047;-80
2021/12/25 13:20:39;;;;;;;11.48;10.88;;;-2.00;99.90;;;;;;4950820;28;20055;-80
2021/12/25 13:23:13;;;;;;;12.77;12.18;;;-1.90;99.90;;;;;;4975969;28;20074;-80
2021/12/25 13:25:56;;;;;;;12.65;12.05;;;-1.80;99.90;;;;;;4971191;28;20047;-79
2021/12/25 13:28:26;;;;;;;11.75;11.25;;;-1.80;99.90;;;;;;4939211;29;20091;-79
2021/12/25 13:31:03;;;;;;;13.30;12.35;;;-2.10;99.90;;;;;;4978238;28;20054;-80
2021/12/25 13:33:34;;;;;;;12.63;11.90;;;-2.10;99.90;;;;;;4953717;29;20114;-80
2021/12/25 13:36:05;;;;;;;12.65;12.05;;;-2.00;99.90;;;;;;4984927;28;20054;-80
2021/12/25 13:38:52;;;;;;;12.05;11.55;;;-2.00;99.90;;;;;;4962154;28;20051;-81
2021/12/25 13:41:42;;;;;;;12.10;11.60;;;-2.10;99.90;;;;;;4985247;28;20083;-81
2021/12/25 13:44:14;;;;;;;14.40;13.60;;;-2.10;99.90;;;;;;4985207;28;20058;-81
2021/12/25 13:46:57;;;;;;;13.88;12.85;;;-2.20;99.90;;;;;;4969218;28;20055;-81
2021/12/25 13:49:38;;;;;;;14.27;13.30;;;-2.20;99.90;;;;;;4952523;28;20106;-81
2021/12/25 13:52:10;;;;;;;12.23;11.73;;;-2.20;99.90;;;;;;4968296;28;20047;-82
2021/12/25 13:54:44;;;;;;;11.63;11.23;;;-2.20;99.90;;;;;;4969366;28;20177;-81
2021/12/25 13:57:12;;;;;;;12.23;11.55;;;-2.20;99.90;;;;;;4952379;28;20091;-81
2021/12/25 13:59:40;;;;;;;12.27;11.68;;;-2.20;99.90;;;;;;4936334;29;20106;-81
2021/12/25 14:02:08;;;;;;;12.38;11.88;;;-2.20;99.90;;;;;;4951483;28;20039;-81
2021/12/25 14:04:40;;;;;;;12.55;12.00;;;-2.20;99.90;;;;;;4969320;28;20051;-81
2021/12/25 14:07:08;;;;;;;12.27;11.77;;;-2.20;99.90;;;;;;4938799;28;20147;-80
2021/12/25 14:09:35;;;;;;;13.07;12.48;;;-2.20;99.90;;;;;;4968097;28;20106;-81
2021/12/25 14:12:03;;;;;;;12.55;11.95;;;-2.20;99.90;;;;;;4936392;28;20043;-82
2021/12/25 14:14:31;;;;;;;13.35;12.80;;;-2.30;99.90;;;;;;4938816;29;20047;-79
2021/12/25 14:16:59;;;;;;;13.52;13.02;;;-2.40;99.90;;;;;;4985843;28;20051;-81
2021/12/25 14:19:28;;;;;;;13.40;12.80;;;-2.40;99.90;;;;;;4956933;28;20042;-81
2021/12/25 14:21:59;;;;;;;14.02;13.30;;;-2.40;99.90;;;;;;4955572;28;20058;-82
2021/12/25 14:24:29;;;;;;;14.00;13.25;;;-2.30;99.90;;;;;;4954205;28;20251;-81
2021/12/25 14:27:12;;;;;;;14.18;13.30;;;-2.40;99.90;;;;;;4973824;28;20155;-81